createdAt,value
2018-02-06T00:00:55.142Z,0.40
2018-02-06T00:03:22.615Z,0.40
2018-02-06T00:05:50.080Z,0.40
2018-02-06T00:08:17.538Z,0.30
2018-02-06T00:10:44.985Z,0.40
2018-02-06T00:13:12.425Z,0.30
2018-02-06T00:15:39.865Z,0.30
2018-02-06T00:18:07.325Z,0.30
2018-02-06T00:20:34.768Z,0.30
2018-02-06T00:23:02.218Z,0.40
2018-02-06T00:25:29.666Z,0.30
2018-02-06T00:27:57.195Z,0.30
2018-02-06T00:30:26.034Z,0.30
2018-02-06T00:32:53.475Z,0.30
2018-02-06T00:35:20.925Z,0.30
2018-02-06T00:37:48.362Z,0.30
2018-02-06T00:40:15.800Z,0.30
2018-02-06T00:42:43.256Z,0.30
2018-02-06T00:45:11.085Z,0.30
2018-02-06T00:47:38.540Z,0.30
2018-02-06T00:50:05.983Z,0.30
2018-02-06T00:52:33.424Z,0.40
2018-02-06T00:55:00.880Z,0.40
2018-02-06T00:57:29.089Z,0.40
2018-02-06T00:59:56.550Z,0.30
2018-02-06T01:02:24.014Z,0.30
2018-02-06T01:04:51.452Z,0.40
2018-02-06T01:07:18.905Z,0.40
2018-02-06T01:09:46.425Z,0.40
2018-02-06T01:12:13.876Z,0.30
2018-02-06T01:14:41.317Z,0.30
2018-02-06T01:17:08.752Z,0.40
2018-02-06T01:19:36.233Z,0.40
2018-02-06T01:22:03.668Z,0.40
2018-02-06T01:24:31.689Z,0.40
2018-02-06T01:27:00.591Z,0.40
2018-02-06T01:29:28.024Z,0.40
2018-02-06T01:31:55.465Z,0.40
2018-02-06T01:34:22.902Z,0.50
2018-02-06T01:36:51.113Z,0.40
2018-02-06T01:39:18.588Z,0.40
2018-02-06T01:41:46.017Z,0.40
2018-02-06T01:44:13.472Z,0.40
2018-02-06T01:46:41.032Z,0.50
2018-02-06T01:49:09.248Z,0.50
2018-02-06T01:51:36.697Z,0.40
2018-02-06T01:54:04.134Z,0.50
2018-02-06T01:56:31.586Z,0.50
2018-02-06T01:58:59.792Z,0.50
2018-02-06T02:01:27.264Z,0.40
2018-02-06T02:03:54.746Z,0.50
2018-02-06T02:06:22.157Z,0.50
2018-02-06T02:08:50.372Z,0.50
2018-02-06T02:11:17.815Z,0.40
2018-02-06T02:13:45.611Z,0.40
2018-02-06T02:16:13.070Z,0.50
2018-02-06T02:18:40.526Z,0.40
2018-02-06T02:21:07.983Z,0.40
2018-02-06T02:23:35.687Z,0.40
2018-02-06T02:26:03.159Z,0.40
2018-02-06T02:28:30.600Z,0.40
2018-02-06T02:30:58.064Z,0.40
2018-02-06T02:33:25.525Z,0.30
2018-02-06T02:35:52.965Z,0.30
2018-02-06T02:38:20.417Z,0.30
2018-02-06T02:40:47.871Z,0.30
2018-02-06T04:38:49.164Z,0.30
2018-02-06T04:41:16.624Z,0.30
2018-02-06T04:43:44.087Z,0.40
2018-02-06T04:46:11.530Z,0.30
2018-02-06T04:48:39.751Z,0.40
2018-02-06T04:51:07.197Z,0.30
2018-02-06T04:53:34.959Z,0.50
2018-02-06T04:56:02.408Z,0.40
2018-02-06T04:58:29.844Z,0.40
2018-02-06T05:00:58.079Z,0.40
2018-02-06T05:03:25.512Z,0.30
2018-02-06T05:05:52.969Z,0.40
2018-02-06T05:08:20.427Z,0.40
2018-02-06T05:10:47.881Z,0.40
2018-02-06T05:13:15.336Z,0.40
2018-02-06T05:15:42.784Z,0.40
2018-02-06T05:18:10.248Z,0.40
2018-02-06T05:20:37.681Z,0.40
2018-02-06T05:23:05.532Z,0.40
2018-02-06T05:25:32.987Z,0.50
2018-02-06T05:28:00.420Z,0.50
2018-02-06T05:30:27.976Z,0.50
2018-02-06T05:32:55.419Z,0.50
2018-02-06T05:35:22.879Z,0.50
2018-02-06T05:37:50.336Z,0.50
2018-02-06T05:40:17.763Z,0.50
2018-02-06T05:42:45.221Z,0.50
2018-02-06T05:45:12.675Z,0.50
2018-02-06T05:47:40.125Z,0.60
2018-02-06T05:50:07.561Z,0.50
2018-02-06T05:52:35.011Z,0.50
2018-02-06T05:55:02.473Z,0.50
2018-02-06T05:57:29.904Z,0.50
2018-02-06T05:59:57.373Z,0.50
2018-02-06T06:02:24.836Z,0.50
2018-02-06T06:04:52.270Z,0.50
2018-02-06T06:07:19.719Z,0.50
2018-02-06T06:09:47.184Z,0.50
2018-02-06T06:12:14.630Z,0.50
2018-02-06T06:14:42.077Z,0.50
2018-02-06T06:17:09.532Z,0.50
2018-02-06T06:19:36.988Z,0.50
2018-02-06T06:22:04.482Z,0.50
2018-02-06T06:24:31.884Z,0.50
2018-02-06T06:26:59.352Z,0.50
2018-02-06T06:29:26.889Z,0.60
2018-02-06T06:31:54.348Z,0.50
2018-02-06T06:34:21.845Z,0.50
2018-02-06T06:36:49.252Z,0.50
2018-02-06T06:39:16.721Z,0.50
2018-02-06T06:41:44.164Z,0.50
2018-02-06T06:44:11.619Z,0.40
2018-02-06T06:46:39.325Z,0.50
2018-02-06T06:49:06.764Z,0.50
2018-02-06T06:51:34.234Z,0.50
2018-02-06T06:54:01.673Z,0.50
2018-02-06T06:56:29.142Z,0.60
2018-02-06T06:58:56.588Z,0.50
2018-02-06T07:01:24.040Z,0.50
2018-02-06T07:03:52.252Z,0.50
2018-02-06T07:06:19.709Z,0.40
2018-02-06T07:08:47.174Z,0.50
2018-02-06T07:11:14.632Z,0.50
2018-02-06T07:13:42.121Z,0.50
2018-02-06T07:16:09.598Z,0.50
2018-02-06T07:18:37.052Z,0.50
2018-02-06T07:21:06.352Z,0.50
2018-02-06T07:23:33.805Z,0.50
2018-02-06T07:26:01.264Z,0.50
2018-02-06T07:28:28.728Z,0.50
2018-02-06T07:30:56.177Z,0.50
2018-02-06T07:33:23.645Z,0.50
2018-02-06T07:35:51.093Z,0.50
2018-02-06T07:38:18.536Z,0.50
2018-02-06T07:40:45.981Z,0.50
2018-02-06T07:43:13.425Z,0.50
2018-02-06T07:45:41.318Z,0.60
2018-02-06T07:48:08.723Z,0.60
2018-02-06T07:50:36.166Z,0.70
2018-02-06T07:53:03.628Z,0.70
2018-02-06T07:55:31.069Z,0.80
2018-02-06T07:57:58.542Z,0.80
2018-02-06T08:00:27.389Z,0.80
2018-02-06T08:02:54.833Z,0.90
2018-02-06T08:05:22.476Z,0.90
2018-02-06T08:07:49.931Z,1.00
2018-02-06T08:10:17.391Z,1.00
2018-02-06T08:12:44.840Z,1.00
2018-02-06T08:15:12.799Z,0.90
2018-02-06T08:17:40.295Z,0.90
2018-02-06T08:20:07.690Z,0.90
2018-02-06T08:22:35.144Z,0.90
2018-02-06T08:25:02.597Z,1.00
2018-02-06T08:27:30.049Z,1.00
2018-02-06T08:29:57.494Z,1.10
2018-02-06T08:32:24.991Z,1.10
2018-02-06T08:34:52.455Z,1.00
2018-02-06T08:37:21.390Z,1.10
2018-02-06T08:39:48.829Z,1.10
2018-02-06T08:42:16.273Z,1.10
2018-02-06T08:44:44.227Z,1.10
2018-02-06T08:47:11.682Z,1.10
2018-02-06T08:49:39.135Z,1.10
2018-02-06T08:52:06.593Z,1.10
2018-02-06T08:54:34.041Z,1.10
2018-02-06T08:57:01.513Z,1.10
2018-02-06T08:59:28.973Z,1.10
2018-02-06T09:01:56.436Z,1.20
2018-02-06T09:04:23.896Z,1.20
2018-02-06T09:06:51.408Z,1.30
2018-02-06T09:09:18.872Z,1.40
2018-02-06T09:11:46.333Z,1.50
2018-02-06T09:14:13.765Z,1.50
2018-02-06T09:16:41.225Z,1.50
2018-02-06T09:19:08.675Z,1.50
2018-02-06T09:21:36.134Z,1.50
2018-02-06T09:24:03.586Z,1.50
2018-02-06T09:26:31.048Z,1.50
2018-02-06T09:28:58.504Z,1.40
2018-02-06T09:31:25.945Z,1.40
2018-02-06T09:33:53.418Z,1.40
2018-02-06T09:36:20.877Z,1.40
2018-02-06T09:38:48.328Z,1.40
2018-02-06T09:41:15.776Z,1.50
2018-02-06T09:43:43.225Z,1.50
2018-02-06T09:46:10.689Z,1.50
2018-02-06T09:48:38.149Z,1.50
2018-02-06T09:51:06.089Z,1.50
2018-02-06T09:53:33.545Z,1.60
2018-02-06T09:56:00.992Z,1.70
2018-02-06T09:58:28.441Z,1.80
2018-02-06T10:00:55.885Z,1.90
2018-02-06T10:03:23.341Z,1.90
2018-02-06T10:05:50.786Z,1.90
2018-02-06T10:08:18.441Z,2.00
2018-02-06T10:10:45.888Z,2.10
2018-02-06T10:13:13.341Z,2.20
2018-02-06T10:15:40.792Z,2.30
2018-02-06T10:18:08.232Z,2.50
2018-02-06T10:20:35.684Z,2.50
2018-02-06T10:23:03.134Z,2.70
2018-02-06T10:25:31.356Z,3.00
2018-02-06T10:27:58.819Z,3.00
2018-02-06T10:30:26.606Z,3.10
2018-02-06T10:32:54.048Z,3.20
2018-02-06T10:35:21.498Z,3.10
2018-02-06T10:37:48.961Z,3.10
2018-02-06T10:40:16.411Z,3.10
2018-02-06T10:42:43.848Z,3.20
2018-02-06T10:45:12.068Z,3.60
2018-02-06T10:47:39.512Z,3.50
2018-02-06T10:50:07.429Z,3.90
2018-02-06T10:52:34.905Z,4.10
2018-02-06T10:55:02.348Z,4.00
2018-02-06T10:57:29.813Z,4.00
2018-02-06T10:59:57.286Z,4.00
2018-02-06T11:02:24.750Z,3.80
2018-02-06T11:04:52.968Z,3.90
2018-02-06T11:07:20.428Z,3.90
2018-02-06T11:09:47.868Z,4.10
2018-02-06T11:12:15.312Z,4.20
2018-02-06T11:14:42.764Z,4.60
2018-02-06T11:17:10.212Z,4.90
2018-02-06T11:19:37.663Z,5.20
2018-02-06T11:22:05.107Z,5.80
2018-02-06T11:24:32.565Z,6.30
2018-02-06T11:27:00.000Z,6.50
2018-02-06T11:29:27.470Z,6.20
2018-02-06T11:31:54.918Z,5.90
2018-02-06T11:34:22.369Z,5.60
2018-02-06T11:36:49.822Z,5.40
2018-02-06T11:39:17.268Z,5.10
2018-02-06T11:41:44.704Z,4.90
2018-02-06T11:44:14.982Z,4.70
2018-02-06T11:46:42.428Z,4.70
2018-02-06T11:49:10.651Z,4.90
2018-02-06T11:51:38.104Z,4.80
2018-02-06T11:54:05.538Z,4.90
2018-02-06T11:56:35.441Z,5.10
2018-02-06T11:59:02.877Z,5.10
2018-02-06T12:01:30.340Z,5.10
2018-02-06T12:03:57.775Z,5.00
2018-02-06T12:06:25.248Z,5.00
2018-02-06T12:08:55.501Z,5.00
2018-02-06T12:11:22.970Z,5.00
2018-02-06T12:13:50.397Z,4.90
2018-02-06T12:16:17.832Z,4.70
2018-02-06T12:18:45.650Z,4.50
2018-02-06T12:21:13.104Z,4.40
2018-02-06T12:23:40.540Z,4.30
2018-02-06T12:26:07.993Z,4.10
2018-02-06T12:28:35.460Z,4.00
2018-02-06T12:31:02.918Z,3.90
2018-02-06T12:33:30.349Z,3.80
2018-02-06T12:35:57.785Z,3.90
2018-02-06T12:38:25.232Z,3.80
2018-02-06T12:40:52.664Z,3.80
2018-02-06T12:43:20.123Z,3.80
2018-02-06T12:45:47.572Z,3.80
2018-02-06T12:48:15.588Z,3.70
2018-02-06T12:50:43.016Z,3.70
2018-02-06T12:53:10.469Z,3.70
2018-02-06T12:55:37.919Z,3.60
2018-02-06T12:58:05.370Z,3.50
2018-02-06T13:00:32.816Z,3.50
2018-02-06T13:03:00.264Z,3.60
2018-02-06T13:05:27.716Z,3.50
2018-02-06T13:07:55.284Z,3.50
2018-02-06T13:10:22.722Z,3.50
2018-02-06T13:12:50.173Z,3.60
2018-02-06T13:15:18.992Z,3.60
2018-02-06T13:17:46.427Z,3.60
2018-02-06T13:20:13.898Z,3.60
2018-02-06T13:22:41.330Z,3.70
2018-02-06T13:25:09.717Z,3.80
2018-02-06T13:27:45.704Z,3.80
2018-02-06T13:30:13.161Z,3.80
2018-02-06T13:32:40.607Z,3.80
2018-02-06T13:35:08.036Z,3.80
2018-02-06T13:37:35.480Z,3.80
2018-02-06T13:40:02.921Z,3.80
2018-02-06T13:42:30.380Z,3.80
2018-02-06T13:44:57.832Z,3.80
2018-02-06T13:47:25.269Z,3.90
2018-02-06T13:49:52.715Z,3.90
2018-02-06T13:52:20.162Z,3.90
2018-02-06T13:54:47.599Z,3.90
2018-02-06T13:57:15.295Z,3.80
2018-02-06T13:59:42.758Z,3.80
2018-02-06T14:02:10.177Z,3.80
2018-02-06T14:04:37.636Z,3.80
2018-02-06T14:07:05.076Z,3.80
2018-02-06T14:09:32.533Z,3.80
2018-02-06T14:12:00.374Z,3.80
2018-02-06T14:14:27.902Z,3.80
2018-02-06T14:16:55.358Z,3.90
2018-02-06T14:19:22.815Z,3.90
2018-02-06T14:21:50.272Z,3.90
2018-02-06T14:24:17.714Z,3.90
2018-02-06T14:26:45.161Z,4.00
2018-02-06T14:29:12.634Z,4.00
2018-02-06T14:31:40.064Z,4.10
2018-02-06T14:34:08.296Z,4.20
2018-02-06T14:36:35.767Z,4.10
2018-02-06T14:39:04.041Z,4.10
2018-02-06T14:41:31.494Z,4.10
2018-02-06T14:43:58.935Z,4.10
2018-02-06T14:46:26.392Z,4.10
2018-02-06T14:48:53.832Z,4.10
2018-02-06T14:51:21.278Z,4.10
2018-02-06T14:53:48.737Z,4.10
2018-02-06T14:56:17.690Z,4.20
2018-02-06T14:58:45.152Z,4.20
2018-02-06T15:01:12.596Z,4.30
2018-02-06T15:03:40.036Z,4.30
2018-02-06T15:06:07.500Z,4.30
2018-02-06T15:08:34.941Z,4.30
2018-02-06T15:11:02.384Z,4.30
2018-02-06T15:13:29.938Z,4.20
2018-02-06T15:15:57.382Z,4.20
2018-02-06T15:18:24.838Z,4.20
2018-02-06T15:20:52.285Z,4.10
2018-02-06T15:23:19.756Z,4.10
2018-02-06T15:25:47.234Z,4.00
2018-02-06T15:28:19.172Z,3.90
2018-02-06T15:30:47.393Z,3.90
2018-02-06T15:33:14.838Z,3.80
2018-02-06T15:35:42.282Z,3.80
2018-02-06T15:38:09.729Z,3.80
2018-02-06T15:40:37.932Z,3.80
2018-02-06T15:43:05.392Z,3.70
2018-02-06T15:45:32.833Z,3.70
2018-02-06T15:48:01.317Z,3.70
2018-02-06T15:50:28.748Z,3.60
2018-02-06T15:52:57.879Z,3.60
2018-02-06T15:55:25.336Z,3.50
2018-02-06T15:57:52.867Z,3.50
2018-02-06T16:00:32.421Z,3.40
2018-02-06T16:02:59.868Z,3.40
2018-02-06T16:05:31.469Z,3.40
2018-02-06T16:07:58.902Z,3.40
2018-02-06T16:10:26.358Z,3.30
2018-02-06T16:12:53.824Z,3.30
2018-02-06T16:15:25.095Z,3.30
2018-02-06T16:17:56.993Z,3.30
2018-02-06T16:20:24.560Z,3.20
2018-02-06T16:22:52.001Z,3.30
2018-02-06T16:25:19.461Z,3.20
2018-02-06T16:27:46.903Z,3.20
2018-02-06T16:30:14.357Z,3.20
2018-02-06T16:32:41.819Z,3.20
2018-02-06T16:35:09.272Z,3.20
2018-02-06T16:37:36.713Z,3.10
2018-02-06T16:40:04.162Z,3.10
2018-02-06T16:42:31.766Z,3.10
2018-02-06T16:44:59.197Z,3.10
2018-02-06T16:47:26.649Z,3.10
2018-02-06T16:49:54.091Z,3.00
2018-02-06T16:52:21.529Z,3.00
2018-02-06T16:54:48.981Z,3.00
2018-02-06T16:57:16.424Z,3.00
2018-02-06T16:59:43.889Z,3.00
2018-02-06T17:02:22.940Z,3.00
2018-02-06T17:04:50.397Z,3.00
2018-02-06T17:07:17.840Z,3.00
2018-02-06T17:09:45.489Z,3.00
2018-02-06T17:12:12.949Z,3.00
2018-02-06T17:14:40.392Z,2.90
2018-02-06T17:17:08.172Z,3.00
2018-02-06T17:19:35.636Z,3.00
2018-02-06T17:22:03.080Z,3.00
2018-02-06T17:24:30.540Z,3.00
2018-02-06T17:26:57.988Z,3.00
2018-02-06T17:29:25.441Z,3.10
2018-02-06T17:31:53.045Z,3.10
2018-02-06T17:34:20.488Z,3.00
2018-02-06T17:36:47.962Z,3.00
2018-02-06T17:39:15.432Z,3.00
2018-02-06T17:41:42.913Z,3.00
2018-02-06T17:44:11.860Z,2.90
2018-02-06T17:46:39.316Z,2.90
2018-02-06T17:49:06.769Z,3.00
2018-02-06T17:51:34.225Z,2.90
2018-02-06T17:54:01.691Z,2.90
2018-02-06T17:56:29.133Z,2.90
2018-02-06T17:58:56.601Z,2.90
2018-02-06T18:01:24.049Z,3.00
2018-02-06T18:03:51.498Z,2.90
2018-02-06T18:06:18.959Z,2.90
2018-02-06T18:08:46.427Z,2.90
2018-02-06T18:11:15.697Z,2.80
2018-02-06T18:13:43.145Z,2.90
2018-02-06T18:16:10.617Z,2.90
2018-02-06T18:18:38.066Z,2.80
2018-02-06T18:21:05.521Z,2.80
2018-02-06T18:23:32.981Z,2.70
2018-02-06T18:26:00.417Z,2.70
2018-02-06T18:28:27.861Z,2.70
2018-02-06T18:30:55.300Z,2.70
2018-02-06T18:33:22.753Z,2.60
2018-02-06T18:35:50.204Z,2.60
2018-02-06T18:38:17.650Z,2.60
2018-02-06T18:40:45.108Z,2.60
2018-02-06T18:43:12.553Z,2.60
2018-02-06T18:45:40.030Z,2.60
2018-02-06T18:48:07.478Z,2.60
2018-02-06T18:50:34.926Z,2.50
2018-02-06T18:53:02.368Z,2.50
2018-02-06T18:55:30.594Z,2.40
2018-02-06T18:57:58.040Z,2.40
2018-02-06T19:00:28.336Z,2.40
2018-02-06T19:02:55.801Z,2.20
2018-02-06T19:05:23.256Z,2.20
2018-02-06T19:07:50.714Z,2.20
2018-02-06T19:10:18.161Z,2.10
2018-02-06T19:12:45.605Z,2.10
2018-02-06T19:15:13.062Z,2.00
2018-02-06T19:17:40.498Z,1.90
2018-02-06T19:20:07.942Z,1.90
2018-02-06T19:22:35.401Z,1.90
2018-02-06T19:25:02.842Z,1.90
2018-02-06T19:32:04.887Z,1.80
2018-02-06T19:34:32.342Z,1.70
2018-02-06T19:37:00.572Z,1.70
2018-02-06T19:39:28.050Z,1.60
2018-02-06T19:41:55.510Z,1.60
2018-02-06T19:44:22.968Z,1.60
2018-02-06T19:46:51.720Z,1.60
2018-02-06T19:49:19.216Z,1.60
2018-02-06T19:51:46.652Z,1.50
2018-02-06T19:54:14.128Z,1.50
2018-02-06T19:56:41.588Z,1.60
2018-02-06T19:59:09.013Z,1.60
2018-02-06T20:01:37.116Z,1.60
2018-02-06T20:04:04.584Z,1.50
2018-02-06T20:06:32.045Z,1.50
2018-02-06T20:08:59.496Z,1.40
2018-02-06T20:11:26.938Z,1.40
2018-02-06T20:13:54.404Z,1.40
2018-02-06T20:16:22.594Z,1.30
2018-02-06T20:18:50.495Z,1.20
2018-02-06T20:21:17.940Z,1.20
2018-02-06T20:23:45.424Z,1.20
2018-02-06T20:26:13.312Z,1.00
2018-02-06T20:28:40.760Z,1.10
2018-02-06T20:31:08.242Z,1.10
2018-02-06T20:33:36.447Z,1.10
2018-02-06T20:36:04.570Z,1.00
2018-02-06T20:38:32.032Z,1.00
2018-02-06T20:40:59.465Z,1.00
2018-02-06T20:43:26.925Z,0.90
2018-02-06T20:45:54.376Z,0.90
2018-02-06T20:48:21.816Z,0.90
2018-02-06T20:50:50.180Z,0.90
2018-02-06T20:53:18.401Z,0.90
2018-02-06T20:55:45.856Z,0.80
2018-02-06T20:58:13.301Z,0.90
2018-02-06T21:00:40.753Z,0.80
2018-02-06T21:03:08.227Z,0.80
2018-02-06T21:05:35.660Z,0.80
2018-02-06T21:08:03.118Z,0.80
2018-02-06T21:10:30.553Z,0.80
2018-02-06T21:12:58.429Z,0.80
2018-02-06T21:15:29.499Z,0.80
2018-02-06T21:18:01.152Z,0.70
2018-02-06T21:20:28.783Z,0.70
2018-02-06T21:22:56.228Z,0.70
2018-02-06T21:25:23.687Z,0.70
2018-02-06T21:27:51.121Z,0.80
2018-02-06T21:30:18.568Z,0.80
2018-02-06T21:32:46.768Z,0.80
2018-02-06T21:35:14.246Z,0.70
2018-02-06T21:37:41.690Z,0.80
2018-02-06T21:40:09.144Z,0.80
2018-02-06T21:42:36.600Z,0.80
2018-02-06T21:45:04.038Z,0.80
2018-02-06T21:47:31.881Z,0.90
2018-02-06T21:49:59.333Z,0.90
2018-02-06T21:52:26.816Z,0.90
2018-02-06T21:54:54.284Z,0.90
2018-02-06T21:57:21.737Z,0.90
2018-02-06T21:59:49.193Z,0.80
2018-02-06T22:02:16.641Z,0.80
2018-02-06T22:04:44.096Z,0.80
2018-02-06T22:07:11.545Z,0.80
2018-02-06T22:09:38.997Z,0.80
2018-02-06T22:12:06.624Z,0.80
2018-02-06T22:14:34.069Z,0.80
2018-02-06T22:17:01.844Z,0.80
2018-02-06T22:19:29.278Z,0.70
2018-02-06T22:21:56.722Z,0.70
2018-02-06T22:24:24.189Z,0.70
2018-02-06T22:26:51.630Z,0.70
2018-02-06T22:29:19.320Z,0.60
2018-02-06T22:31:46.764Z,0.60
2018-02-06T22:34:14.225Z,0.60
2018-02-06T22:36:41.686Z,0.60
2018-02-06T22:39:09.124Z,0.60
2018-02-06T22:41:36.627Z,0.60
2018-02-06T22:44:04.224Z,0.60
2018-02-06T22:46:31.569Z,0.60
2018-02-06T22:48:59.008Z,0.60
2018-02-06T22:51:26.463Z,0.60
2018-02-06T22:53:53.926Z,0.60
2018-02-06T22:56:21.352Z,0.60
2018-02-06T22:58:49.567Z,0.60
2018-02-06T23:01:17.173Z,0.60
2018-02-06T23:03:44.633Z,0.60
2018-02-06T23:06:12.085Z,0.60
2018-02-06T23:08:39.532Z,0.60
2018-02-06T23:11:07.405Z,0.60
2018-02-06T23:13:34.850Z,0.60
2018-02-06T23:16:02.286Z,0.60
2018-02-06T23:18:29.733Z,0.60
2018-02-06T23:20:57.956Z,0.60
2018-02-06T23:23:25.409Z,0.60
2018-02-06T23:25:52.852Z,0.70
2018-02-06T23:28:20.296Z,0.70
2018-02-06T23:30:47.751Z,0.70
2018-02-06T23:33:15.206Z,0.60
2018-02-06T23:35:43.424Z,0.60
2018-02-06T23:38:10.876Z,0.60
2018-02-06T23:40:38.320Z,0.60
2018-02-06T23:43:06.549Z,0.60
2018-02-06T23:45:33.990Z,0.60
2018-02-06T23:48:02.413Z,0.60
2018-02-06T23:50:29.864Z,0.60
2018-02-06T23:52:57.316Z,0.60
2018-02-06T23:55:24.769Z,0.60
2018-02-06T23:57:52.216Z,0.60
